Vremea mâine în Sovata - Romania

Vrei sa afli care e starea vremii acum in Mures - Romania? Dorim sa iti furnizam starea vremii pentru Mures - Romania. Starea vremii Mures - Romania pentru astazi.

Vremea mâine în Sovata

Temperatura minimă:
6.8 °C

Temperatura maximă:
22.4 °C

Mâine va fi: Patchy rain nearby
Precipitații: 89 %
Umiditate: 69%
Viteza maximă vânt mâine:
15.5 km/h

Evoluția vremii in Sovata pe ore mâine

Ora: 03:00
Temperatura: °C
Sansa de precipitatii: %
Ora Descriere Temp Se simte Precipitatii Umiditate Vant
00:00Senin9.1°8.5°0%85%E 5.8 KM/H
01:00Senin8.5°8.1°0%86%E 5 KM/H
02:00Senin8.2°7.6°0%86%E 5.4 KM/H
03:00Senin7.8°0%86%E 5.8 KM/H
04:00Senin7.6°6.8°0%86%E 5.8 KM/H
05:00Senin7.2°6.6°0%86%E 5 KM/H
06:00Senin6.8°6.4°0%86%E 4.3 KM/H
07:00Senin8.2°8.1°0%83%E 4 KM/H
08:00Senin12.8°13.2°0%74%ESE 4 KM/H
09:00Senin15.3°15.3°0%66%SE 4.3 KM/H
10:00Senin17.4°17.4°0%60%S 5 KM/H
11:00Senin19°19°0%56%SW 6.5 KM/H
12:00Senin20.3°20.3°0%52%SW 7.2 KM/H
13:00Senin21.3°21.3°0%49%SW 7.9 KM/H
14:00Senin22.1°24.3°0%46%SW 8.6 KM/H
15:00Senin22.4°24.3°0%43%WSW 9 KM/H
16:00Senin22.4°24.2°0%41%WSW 10.4 KM/H
17:00Senin22.3°24.1°0%41%W 11.5 KM/H
18:00Senin21.7°21.7°0%47%W 11.2 KM/H
19:00Senin18.9°18.9°0%60%WSW 15.5 KM/H
20:00Patchy rain nearby12.8°12.6°81%77%SW 6.5 KM/H
21:00Patchy rain nearby10.8°10.7°100%82%ESE 5 KM/H
22:009.9°9.9°0%86%E 4 KM/H
23:009.5°9.7°0%85%E 3.6 KM/H




tutorials